createdAt,value
2018-05-06T00:00:11.749Z,12.11
2018-05-06T00:02:38.884Z,12.06
2018-05-06T00:05:06.144Z,12.15
2018-05-06T00:07:33.204Z,12.20
2018-05-06T00:10:00.273Z,12.16
2018-05-06T00:12:27.397Z,12.05
2018-05-06T00:14:54.487Z,11.95
2018-05-06T00:17:21.564Z,12.00
2018-05-06T00:19:48.757Z,12.05
2018-05-06T00:22:15.828Z,12.02
2018-05-06T00:24:43.030Z,11.91
2018-05-06T00:27:10.094Z,11.80
2018-05-06T00:29:37.182Z,11.73
2018-05-06T00:32:04.375Z,11.67
2018-05-06T00:34:31.725Z,11.66
2018-05-06T00:36:58.779Z,11.68
2018-05-06T00:39:25.837Z,11.66
2018-05-06T00:41:52.907Z,11.61
2018-05-06T00:44:20.135Z,11.56
2018-05-06T00:46:47.239Z,11.54
2018-05-06T00:49:14.377Z,11.47
2018-05-06T00:51:41.462Z,11.43
2018-05-06T00:54:14.397Z,11.42
2018-05-06T00:56:41.495Z,11.39
2018-05-06T00:59:08.653Z,11.29
2018-05-06T01:01:35.720Z,11.28
2018-05-06T01:04:02.810Z,11.24
2018-05-06T01:06:29.918Z,11.23
2018-05-06T01:08:56.990Z,11.19
2018-05-06T01:11:24.259Z,11.16
2018-05-06T01:13:51.344Z,11.18
2018-05-06T01:16:18.434Z,11.21
2018-05-06T01:18:45.500Z,11.23
2018-05-06T01:21:12.578Z,11.16
2018-05-06T01:23:39.700Z,11.15
2018-05-06T01:26:06.830Z,11.03
2018-05-06T01:28:33.891Z,11.03
2018-05-06T01:31:01.084Z,10.95
2018-05-06T01:33:28.314Z,10.95
2018-05-06T01:35:55.498Z,10.94
2018-05-06T01:38:22.574Z,10.91
2018-05-06T01:40:49.647Z,10.87
2018-05-06T01:43:16.969Z,10.88
2018-05-06T01:45:44.045Z,10.81
2018-05-06T01:48:11.195Z,10.79
2018-05-06T01:50:38.260Z,10.69
2018-05-06T01:53:06.105Z,10.70
2018-05-06T01:55:33.293Z,10.62
2018-05-06T01:58:00.393Z,10.68
2018-05-06T02:00:27.571Z,10.67
2018-05-06T02:02:54.576Z,10.65
2018-05-06T02:05:21.628Z,10.60
2018-05-06T02:07:48.783Z,10.56
2018-05-06T02:10:15.896Z,10.50
2018-05-06T02:12:42.963Z,10.55
2018-05-06T02:15:10.016Z,10.57
2018-05-06T02:17:37.036Z,10.59
2018-05-06T02:20:04.525Z,10.55
2018-05-06T02:22:31.785Z,10.52
2018-05-06T02:24:58.847Z,10.51
2018-05-06T02:27:26.119Z,10.49
2018-05-06T02:29:53.204Z,10.48
2018-05-06T02:32:20.296Z,10.51
2018-05-06T02:34:47.394Z,10.46
2018-05-06T02:37:14.470Z,10.49
2018-05-06T02:39:41.592Z,10.42
2018-05-06T02:42:08.670Z,10.29
2018-05-06T02:44:35.740Z,10.21
2018-05-06T02:47:02.890Z,10.26
2018-05-06T02:49:30.026Z,10.28
2018-05-06T02:51:57.366Z,10.15
2018-05-06T02:54:24.700Z,10.18
2018-05-06T02:56:52.021Z,10.21
2018-05-06T02:59:19.378Z,10.25
2018-05-06T03:01:47.190Z,10.32
2018-05-06T03:04:14.451Z,10.27
2018-05-06T03:06:41.575Z,10.16
2018-05-06T03:09:08.739Z,10.13
2018-05-06T03:11:35.951Z,10.08
2018-05-06T03:14:04.050Z,10.14
2018-05-06T03:16:31.221Z,10.07
2018-05-06T03:18:58.295Z,10.01
2018-05-06T03:21:25.314Z,9.95
2018-05-06T03:23:52.369Z,9.95
2018-05-06T03:26:19.418Z,9.98
2018-05-06T03:28:46.585Z,9.97
2018-05-06T03:31:13.640Z,9.87
2018-05-06T03:33:40.759Z,9.89
2018-05-06T03:36:07.792Z,9.75
2018-05-06T03:38:34.890Z,9.73
2018-05-06T03:41:01.938Z,9.70
2018-05-06T03:43:29.077Z,9.67
2018-05-06T03:45:56.145Z,9.63
2018-05-06T03:48:23.202Z,9.63
2018-05-06T03:50:50.290Z,9.62
2018-05-06T03:53:17.431Z,9.59
2018-05-06T03:55:44.552Z,9.54
2018-05-06T03:58:17.504Z,9.55
2018-05-06T04:00:47.521Z,9.59
2018-05-06T04:03:14.584Z,9.58
2018-05-06T04:05:41.743Z,9.54
2018-05-06T04:08:08.766Z,9.55
2018-05-06T04:10:35.884Z,9.57
2018-05-06T04:13:03.072Z,9.64
2018-05-06T04:15:30.264Z,9.73
2018-05-06T04:17:57.619Z,9.78
2018-05-06T04:20:24.666Z,9.89
2018-05-06T04:22:51.816Z,10.03
2018-05-06T04:25:18.949Z,10.09
2018-05-06T04:27:46.015Z,10.17
2018-05-06T04:30:13.114Z,10.21
2018-05-06T04:32:40.169Z,10.27
2018-05-06T04:35:07.236Z,10.38
2018-05-06T04:37:34.308Z,10.46
2018-05-06T04:40:01.502Z,10.53
2018-05-06T04:42:28.585Z,10.62
2018-05-06T04:44:55.652Z,10.73
2018-05-06T04:47:22.735Z,10.80
2018-05-06T04:49:49.976Z,10.91
2018-05-06T04:52:17.041Z,11.13
2018-05-06T04:54:44.146Z,11.44
2018-05-06T04:57:11.346Z,11.64
2018-05-06T04:59:39.105Z,11.91
2018-05-06T05:02:06.240Z,12.34
2018-05-06T05:04:33.746Z,12.82
2018-05-06T05:07:00.896Z,13.43
2018-05-06T05:09:28.116Z,13.91
2018-05-06T05:11:55.360Z,14.31
2018-05-06T05:14:22.480Z,14.44
2018-05-06T05:16:49.597Z,15.10
2018-05-06T05:19:16.763Z,15.27
2018-05-06T05:21:43.989Z,15.68
2018-05-06T05:24:11.275Z,15.83
2018-05-06T05:26:38.377Z,16.14
2018-05-06T05:29:05.615Z,16.50
2018-05-06T05:31:32.680Z,16.42
2018-05-06T05:34:00.024Z,15.85
2018-05-06T05:36:27.177Z,15.80
2018-05-06T05:38:54.267Z,15.71
2018-05-06T05:41:21.367Z,16.33
2018-05-06T05:43:48.906Z,17.24
2018-05-06T05:46:16.161Z,17.77
2018-05-06T05:48:43.226Z,18.21
2018-05-06T05:51:10.429Z,19.30
2018-05-06T05:53:37.982Z,19.84
2018-05-06T05:56:05.542Z,20.67
2018-05-06T05:58:33.141Z,20.66
2018-05-06T06:01:31.541Z,21.04
2018-05-06T06:03:59.259Z,21.48
2018-05-06T06:06:26.943Z,22.15
2018-05-06T06:08:54.533Z,22.31
2018-05-06T06:11:22.221Z,22.80
2018-05-06T06:13:49.736Z,22.78
2018-05-06T06:16:17.388Z,23.10
2018-05-06T06:18:45.361Z,23.09
2018-05-06T06:21:12.967Z,23.61
2018-05-06T06:23:40.476Z,23.61
2018-05-06T06:26:08.016Z,24.27
2018-05-06T06:28:35.578Z,24.61
2018-05-06T06:31:03.215Z,24.48
2018-05-06T06:33:31.303Z,24.47
2018-05-06T06:35:58.953Z,24.54
2018-05-06T06:38:26.521Z,25.35
2018-05-06T06:40:54.081Z,25.81
2018-05-06T06:43:21.617Z,26.31
2018-05-06T06:45:49.171Z,26.43
2018-05-06T06:48:16.694Z,25.79
2018-05-06T06:50:44.263Z,26.72
2018-05-06T06:53:11.817Z,26.81
2018-05-06T06:55:39.872Z,27.09
2018-05-06T06:58:07.359Z,27.58
2018-05-06T07:00:34.897Z,27.91
2018-05-06T07:03:03.006Z,27.71
2018-05-06T07:05:30.553Z,27.78
2018-05-06T07:07:58.145Z,28.13
2018-05-06T07:10:25.791Z,28.13
2018-05-06T07:12:53.330Z,28.30
2018-05-06T07:15:21.076Z,28.22
2018-05-06T07:17:48.610Z,28.20
2018-05-06T07:20:16.302Z,28.75
2018-05-06T07:22:43.847Z,29.23
2018-05-06T07:25:12.186Z,29.16
2018-05-06T07:27:39.828Z,28.99
2018-05-06T07:30:07.537Z,29.82
2018-05-06T07:32:35.082Z,30.02
2018-05-06T07:35:04.206Z,29.64
2018-05-06T07:37:31.892Z,30.06
2018-05-06T07:39:59.666Z,29.99
2018-05-06T07:42:27.193Z,30.60
2018-05-06T07:44:54.927Z,30.61
2018-05-06T07:47:22.476Z,30.57
2018-05-06T07:49:50.337Z,30.66
2018-05-06T07:52:17.878Z,30.63
2018-05-06T07:54:45.427Z,30.97
2018-05-06T07:57:13.147Z,31.04
2018-05-06T07:59:40.663Z,31.21
2018-05-06T08:02:08.243Z,32.40
2018-05-06T08:04:36.431Z,31.59
2018-05-06T08:07:03.982Z,31.77
2018-05-06T08:09:31.607Z,31.95
2018-05-06T08:11:59.511Z,31.64
2018-05-06T08:14:27.065Z,31.70
2018-05-06T08:16:54.593Z,32.96
2018-05-06T08:19:22.407Z,32.52
2018-05-06T08:21:50.022Z,32.84
2018-05-06T08:24:17.517Z,33.45
2018-05-06T08:26:45.062Z,33.57
2018-05-06T08:29:12.642Z,34.78
2018-05-06T08:31:40.162Z,34.76
2018-05-06T08:34:07.702Z,34.43
2018-05-06T08:36:35.463Z,34.76
2018-05-06T08:39:03.078Z,35.26
2018-05-06T08:41:30.727Z,34.63
2018-05-06T08:43:58.298Z,35.43
2018-05-06T08:46:25.868Z,35.78
2018-05-06T08:48:54.060Z,35.67
2018-05-06T08:51:21.711Z,36.30
2018-05-06T08:53:49.192Z,36.97
2018-05-06T08:56:16.768Z,36.17
2018-05-06T08:58:44.296Z,36.94
2018-05-06T09:01:12.296Z,37.11
2018-05-06T09:03:39.843Z,38.34
2018-05-06T09:06:07.784Z,37.51
2018-05-06T09:08:35.342Z,36.71
2018-05-06T09:11:03.185Z,37.15
2018-05-06T09:13:30.729Z,37.95
2018-05-06T09:15:58.314Z,38.21
2018-05-06T09:18:26.019Z,37.86
2018-05-06T09:20:53.703Z,38.48
2018-05-06T09:23:21.415Z,38.84
2018-05-06T09:25:49.148Z,39.46
2018-05-06T09:28:17.149Z,40.36
2018-05-06T09:30:44.761Z,40.84
2018-05-06T09:33:12.364Z,39.88
2018-05-06T09:35:39.889Z,37.77
2018-05-06T09:38:07.894Z,37.42
2018-05-06T09:40:35.467Z,38.30
2018-05-06T09:43:03.193Z,37.35
2018-05-06T09:45:31.003Z,37.53
2018-05-06T09:47:58.519Z,38.27
2018-05-06T09:50:26.055Z,36.97
2018-05-06T09:52:53.609Z,38.15
2018-05-06T09:55:21.129Z,38.92
2018-05-06T09:57:48.730Z,39.21
2018-05-06T10:00:16.440Z,39.62
2018-05-06T10:02:44.001Z,39.58
2018-05-06T10:05:11.816Z,39.78
2018-05-06T10:07:39.355Z,39.53
2018-05-06T10:10:07.119Z,39.05
2018-05-06T10:12:34.722Z,37.45
2018-05-06T10:15:02.274Z,37.95
2018-05-06T10:17:29.887Z,37.18
2018-05-06T10:19:57.477Z,37.32
2018-05-06T10:22:25.422Z,38.51
2018-05-06T10:24:52.958Z,38.39
2018-05-06T10:27:20.627Z,39.01
2018-05-06T10:29:48.176Z,37.34
2018-05-06T10:32:15.775Z,37.96
2018-05-06T10:34:43.378Z,38.87
2018-05-06T10:37:10.932Z,39.51
2018-05-06T10:39:38.704Z,40.25
2018-05-06T10:42:06.280Z,40.11
2018-05-06T10:44:34.310Z,41.07
2018-05-06T10:47:01.989Z,40.01
2018-05-06T10:49:29.695Z,39.82
2018-05-06T10:51:57.320Z,39.41
2018-05-06T10:54:24.949Z,39.71
2018-05-06T10:56:52.525Z,39.08
2018-05-06T10:59:20.232Z,39.98
2018-05-06T11:01:48.219Z,40.66
2018-05-06T11:04:15.889Z,40.95
2018-05-06T11:06:43.462Z,41.97
2018-05-06T11:09:11.964Z,41.39
2018-05-06T11:11:39.626Z,40.91
2018-05-06T11:14:07.319Z,40.51
2018-05-06T11:16:34.940Z,40.59
2018-05-06T11:19:02.559Z,39.98
2018-05-06T11:21:30.188Z,41.11
2018-05-06T11:23:57.885Z,39.93
2018-05-06T11:26:25.786Z,40.71
2018-05-06T11:28:53.470Z,40.39
2018-05-06T11:31:21.280Z,41.63
2018-05-06T11:33:48.885Z,42.39
2018-05-06T11:36:16.389Z,43.21
2018-05-06T11:38:44.113Z,43.08
2018-05-06T11:41:12.045Z,42.14
2018-05-06T11:43:40.038Z,40.57
2018-05-06T11:46:07.743Z,39.83
2018-05-06T11:48:35.482Z,39.71
2018-05-06T11:51:03.245Z,39.68
2018-05-06T11:53:32.015Z,40.88
2018-05-06T11:55:59.542Z,41.37
2018-05-06T11:58:28.044Z,41.74
2018-05-06T12:00:55.939Z,40.83
2018-05-06T12:03:23.707Z,41.36
2018-05-06T12:05:51.654Z,42.90
2018-05-06T12:08:19.263Z,43.06
2018-05-06T12:10:46.940Z,42.16
2018-05-06T12:13:14.729Z,40.33
2018-05-06T12:15:42.344Z,40.09
2018-05-06T12:18:09.899Z,40.08
2018-05-06T12:20:37.503Z,41.39
2018-05-06T12:23:05.119Z,40.99
2018-05-06T12:25:32.684Z,40.28
2018-05-06T12:28:00.298Z,41.41
2018-05-06T12:30:28.168Z,41.41
2018-05-06T12:32:55.717Z,39.92
2018-05-06T12:35:23.987Z,40.00
2018-05-06T12:37:51.626Z,39.93
2018-05-06T12:40:19.349Z,39.54
2018-05-06T12:42:46.913Z,38.93
2018-05-06T12:45:15.099Z,39.58
2018-05-06T12:47:42.619Z,39.26
2018-05-06T12:50:10.303Z,38.68
2018-05-06T12:52:38.060Z,39.22
2018-05-06T12:55:05.595Z,39.42
2018-05-06T12:57:33.279Z,38.91
2018-05-06T13:00:01.028Z,39.70
2018-05-06T13:02:28.833Z,40.70
2018-05-06T13:04:56.367Z,40.46
2018-05-06T13:07:23.984Z,40.51
2018-05-06T13:09:52.528Z,38.50
2018-05-06T13:12:20.170Z,38.49
2018-05-06T13:14:47.883Z,38.02
2018-05-06T13:17:15.440Z,36.46
2018-05-06T13:19:43.013Z,37.01
2018-05-06T13:22:10.824Z,37.39
2018-05-06T13:24:38.980Z,36.26
2018-05-06T13:27:06.539Z,35.17
2018-05-06T13:29:34.252Z,35.64
2018-05-06T13:32:01.794Z,36.09
2018-05-06T13:34:29.415Z,34.72
2018-05-06T13:36:57.215Z,35.26
2018-05-06T13:39:24.739Z,34.45
2018-05-06T13:41:52.611Z,34.17
2018-05-06T13:44:20.174Z,33.80
2018-05-06T13:46:47.749Z,31.96
2018-05-06T13:49:15.306Z,31.37
2018-05-06T13:51:42.875Z,31.29
2018-05-06T13:54:10.659Z,30.40
2018-05-06T13:56:38.514Z,30.16
2018-05-06T13:59:06.066Z,29.97
2018-05-06T14:01:33.780Z,29.77
2018-05-06T14:04:01.281Z,30.31
2018-05-06T14:06:28.890Z,30.58
2018-05-06T14:08:56.721Z,30.54
2018-05-06T14:11:24.818Z,30.41
2018-05-06T14:13:52.488Z,29.20
2018-05-06T14:16:20.099Z,29.15
2018-05-06T14:18:47.843Z,29.25
2018-05-06T14:21:15.489Z,28.46
2018-05-06T14:23:43.263Z,28.34
2018-05-06T14:26:11.069Z,28.25
2018-05-06T14:28:38.634Z,28.72
2018-05-06T14:31:06.195Z,28.18
2018-05-06T14:33:34.283Z,27.89
2018-05-06T14:36:02.004Z,28.03
2018-05-06T14:38:29.706Z,28.12
2018-05-06T14:40:57.354Z,27.91
2018-05-06T14:43:25.254Z,27.98
2018-05-06T14:45:52.796Z,27.74
2018-05-06T14:48:20.621Z,27.66
2018-05-06T14:51:18.960Z,27.43
2018-05-06T14:53:46.490Z,26.82
2018-05-06T14:56:22.661Z,26.77
2018-05-06T14:58:50.278Z,26.62
2018-05-06T15:01:18.679Z,26.56
2018-05-06T15:03:46.403Z,26.44
2018-05-06T15:06:14.121Z,26.39
2018-05-06T15:08:41.705Z,26.33
2018-05-06T15:11:09.400Z,26.36
2018-05-06T15:13:36.910Z,26.16
2018-05-06T15:16:04.665Z,25.88
2018-05-06T15:18:32.332Z,25.85
2018-05-06T15:20:59.896Z,25.98
2018-05-06T15:23:27.505Z,26.22
2018-05-06T15:25:55.434Z,26.22
2018-05-06T15:28:23.010Z,26.27
2018-05-06T15:30:50.561Z,26.17
2018-05-06T15:33:18.270Z,26.14
2018-05-06T15:35:45.984Z,26.22
2018-05-06T15:38:13.533Z,26.19
2018-05-06T15:40:41.174Z,26.33
2018-05-06T15:43:08.725Z,26.40
2018-05-06T15:45:36.366Z,26.54
2018-05-06T15:48:04.055Z,26.49
2018-05-06T15:50:31.618Z,26.39
2018-05-06T15:52:59.137Z,26.34
2018-05-06T15:55:26.669Z,26.48
2018-05-06T15:57:54.405Z,26.55
2018-05-06T16:00:22.181Z,26.57
2018-05-06T16:03:01.445Z,26.54
2018-05-06T16:05:29.096Z,26.51
2018-05-06T16:07:56.843Z,26.59
2018-05-06T16:10:24.441Z,26.56
2018-05-06T16:12:51.992Z,26.47
2018-05-06T16:15:19.760Z,26.23
2018-05-06T16:17:47.562Z,26.09
2018-05-06T16:20:15.129Z,25.96
2018-05-06T16:22:42.749Z,25.74
2018-05-06T16:25:10.325Z,25.62
2018-05-06T16:27:37.963Z,25.48
2018-05-06T16:30:05.675Z,25.36
2018-05-06T16:32:33.365Z,25.24
2018-05-06T16:35:01.091Z,25.19
2018-05-06T16:37:28.625Z,25.09
2018-05-06T16:39:56.232Z,25.07
2018-05-06T16:42:23.752Z,24.96
2018-05-06T16:44:51.302Z,24.87
2018-05-06T16:47:18.950Z,24.85
2018-05-06T16:49:46.566Z,24.81
2018-05-06T16:52:14.164Z,24.74
2018-05-06T16:54:42.026Z,24.67
2018-05-06T16:57:09.571Z,24.57
2018-05-06T16:59:37.982Z,24.55
2018-05-06T17:02:05.657Z,24.42
2018-05-06T17:04:33.266Z,24.37
2018-05-06T17:07:00.908Z,24.28
2018-05-06T17:09:28.555Z,24.27
2018-05-06T17:11:56.246Z,24.20
2018-05-06T17:14:23.920Z,24.09
2018-05-06T17:16:51.515Z,24.04
2018-05-06T17:19:19.126Z,24.00
2018-05-06T17:21:48.212Z,23.90
2018-05-06T17:24:15.871Z,23.87
2018-05-06T17:26:43.471Z,23.78
2018-05-06T17:29:11.447Z,23.71
2018-05-06T17:31:39.179Z,23.65
2018-05-06T17:34:07.482Z,23.59
2018-05-06T17:36:35.191Z,23.52
2018-05-06T17:39:02.922Z,23.41
2018-05-06T17:41:30.747Z,23.30
2018-05-06T17:43:58.472Z,23.28
2018-05-06T17:46:26.158Z,23.26
2018-05-06T17:48:53.965Z,23.11
2018-05-06T17:51:21.922Z,23.04
2018-05-06T17:53:49.509Z,22.97
2018-05-06T17:56:17.298Z,22.87
2018-05-06T17:58:45.307Z,22.78
2018-05-06T18:01:12.996Z,22.72
2018-05-06T18:03:40.750Z,22.61
2018-05-06T18:06:08.876Z,22.51
2018-05-06T18:08:36.526Z,22.39
2018-05-06T18:11:04.365Z,22.33
2018-05-06T18:13:32.124Z,22.24
2018-05-06T18:15:59.927Z,22.15
2018-05-06T18:18:27.737Z,22.03
2018-05-06T18:20:55.501Z,21.92
2018-05-06T18:23:23.052Z,21.76
2018-05-06T18:25:50.848Z,21.60
2018-05-06T18:28:18.402Z,21.50
2018-05-06T18:30:46.472Z,21.41
2018-05-06T18:33:13.827Z,21.22
2018-05-06T18:35:40.983Z,21.12
2018-05-06T18:38:08.345Z,21.01
2018-05-06T18:40:35.935Z,20.84
2018-05-06T18:43:03.656Z,20.76
2018-05-06T18:45:31.408Z,20.63
2018-05-06T18:47:59.111Z,20.55
2018-05-06T18:50:27.027Z,20.44
2018-05-06T18:52:55.176Z,20.38
2018-05-06T18:55:22.815Z,20.39
2018-05-06T18:57:50.863Z,20.22
2018-05-06T19:00:18.513Z,20.11
2018-05-06T19:02:46.507Z,19.87
2018-05-06T19:05:14.097Z,19.68
2018-05-06T19:07:41.916Z,19.42
2018-05-06T19:10:09.628Z,19.27
2018-05-06T19:12:37.488Z,19.13
2018-05-06T19:15:05.297Z,18.96
2018-05-06T19:17:32.867Z,18.83
2018-05-06T19:20:00.694Z,18.67
2018-05-06T19:22:28.582Z,18.58
2018-05-06T19:24:56.430Z,18.46
2018-05-06T19:27:24.104Z,18.38
2018-05-06T19:29:51.496Z,18.25
2018-05-06T19:32:18.577Z,18.13
2018-05-06T19:34:45.766Z,18.07
2018-05-06T19:37:13.090Z,17.92
2018-05-06T19:39:40.312Z,17.80
2018-05-06T19:42:29.995Z,17.70
2018-05-06T19:44:57.423Z,17.60
2018-05-06T19:47:24.540Z,17.52
2018-05-06T19:49:52.166Z,17.37
2018-05-06T19:52:19.740Z,17.27
2018-05-06T19:54:47.492Z,17.19
2018-05-06T19:57:15.176Z,17.00
2018-05-06T19:59:42.889Z,16.92
2018-05-06T20:02:10.542Z,16.77
2018-05-06T20:04:38.095Z,16.70
2018-05-06T20:07:05.677Z,16.53
2018-05-06T20:09:34.216Z,16.45
2018-05-06T20:12:01.883Z,16.27
2018-05-06T20:14:29.610Z,16.13
2018-05-06T20:16:57.155Z,16.02
2018-05-06T20:19:24.707Z,15.94
2018-05-06T20:21:52.456Z,15.73
2018-05-06T20:24:20.062Z,15.51
2018-05-06T20:26:47.263Z,15.24
2018-05-06T20:29:14.725Z,15.09
2018-05-06T20:31:41.883Z,15.01
2018-05-06T20:34:09.248Z,14.79
2018-05-06T20:36:36.812Z,14.68
2018-05-06T20:39:03.946Z,14.59
2018-05-06T20:41:31.246Z,14.38
2018-05-06T20:43:58.328Z,14.35
2018-05-06T20:46:25.472Z,14.28
2018-05-06T20:48:52.666Z,14.29
2018-05-06T20:51:19.967Z,14.25
2018-05-06T20:53:47.077Z,14.21
2018-05-06T20:56:14.189Z,14.06
2018-05-06T20:58:41.302Z,14.02
2018-05-06T21:01:08.567Z,13.97
2018-05-06T21:03:36.013Z,13.73
2018-05-06T21:06:03.190Z,13.35
2018-05-06T21:08:30.577Z,13.12
2018-05-06T21:10:59.133Z,13.11
2018-05-06T21:13:26.242Z,13.20
2018-05-06T21:15:53.405Z,13.24
2018-05-06T21:18:20.558Z,13.26
2018-05-06T21:20:47.700Z,13.31
2018-05-06T21:23:14.863Z,13.29
2018-05-06T21:25:41.943Z,13.26
2018-05-06T21:28:09.063Z,13.10
2018-05-06T21:30:36.239Z,12.90
2018-05-06T21:33:03.396Z,12.83
2018-05-06T21:35:30.485Z,12.72
2018-05-06T21:37:57.548Z,12.57
2018-05-06T21:40:24.626Z,12.34
2018-05-06T21:42:51.698Z,12.22
2018-05-06T21:45:19.143Z,12.12
2018-05-06T21:47:46.192Z,11.97
2018-05-06T21:50:13.535Z,11.93
2018-05-06T21:52:40.611Z,12.00
2018-05-06T21:55:07.701Z,12.02
2018-05-06T21:57:34.786Z,12.03
2018-05-06T22:00:01.853Z,11.95
2018-05-06T22:02:28.922Z,11.70
2018-05-06T22:04:56.003Z,11.46
2018-05-06T22:07:23.204Z,11.45
2018-05-06T22:09:50.307Z,11.32
2018-05-06T22:12:17.380Z,11.27
2018-05-06T22:14:44.477Z,11.36
2018-05-06T22:17:11.567Z,11.35
2018-05-06T22:19:38.676Z,11.36
2018-05-06T22:22:05.727Z,11.33
2018-05-06T22:24:32.813Z,11.23
2018-05-06T22:26:59.886Z,11.20
2018-05-06T22:29:26.991Z,11.19
2018-05-06T22:31:54.116Z,11.15
2018-05-06T22:34:21.204Z,11.14
2018-05-06T22:36:48.272Z,10.98
2018-05-06T22:39:15.492Z,10.82
2018-05-06T22:41:42.747Z,10.74
2018-05-06T22:44:09.737Z,10.79
2018-05-06T22:46:37.602Z,10.64
2018-05-06T22:49:04.996Z,10.58
2018-05-06T22:51:32.131Z,10.54
2018-05-06T22:53:59.197Z,10.42
2018-05-06T22:56:26.273Z,10.44
2018-05-06T22:58:53.417Z,10.55
2018-05-06T23:01:20.512Z,10.53
2018-05-06T23:03:47.586Z,10.37
2018-05-06T23:06:15.170Z,10.25
2018-05-06T23:08:42.225Z,10.22
2018-05-06T23:11:09.405Z,10.21
2018-05-06T23:13:36.463Z,10.11
2018-05-06T23:16:03.563Z,9.92
2018-05-06T23:18:30.627Z,9.92
2018-05-06T23:20:57.763Z,9.88
2018-05-06T23:23:24.862Z,9.86
2018-05-06T23:25:52.047Z,9.89
2018-05-06T23:28:19.095Z,9.74
2018-05-06T23:30:46.211Z,9.64
2018-05-06T23:33:13.366Z,9.76
2018-05-06T23:35:40.451Z,9.63
2018-05-06T23:38:07.592Z,9.67
2018-05-06T23:40:34.937Z,9.51
2018-05-06T23:43:02.270Z,9.41
2018-05-06T23:45:29.416Z,9.41
2018-05-06T23:47:56.497Z,9.47
2018-05-06T23:50:23.716Z,9.37
2018-05-06T23:52:50.808Z,9.28
2018-05-06T23:55:18.043Z,9.23
2018-05-06T23:57:45.151Z,9.22
